createdAt,value
2023-02-15T00:00:41.740Z,9.70
2023-02-15T00:01:41.809Z,9.60
2023-02-15T00:02:41.710Z,9.70
2023-02-15T00:03:41.698Z,9.90
2023-02-15T00:04:41.689Z,10.00
2023-02-15T00:05:41.691Z,10.40
2023-02-15T00:06:41.841Z,10.10
2023-02-15T00:07:41.673Z,10.50
2023-02-15T00:08:41.643Z,10.30
2023-02-15T00:09:41.642Z,9.20
2023-02-15T00:10:41.612Z,9.30
2023-02-15T00:11:41.615Z,10.20
2023-02-15T00:12:41.754Z,9.90
2023-02-15T00:13:41.565Z,10.80
2023-02-15T00:14:41.565Z,10.10
2023-02-15T00:15:41.589Z,10.00
2023-02-15T00:16:41.588Z,9.50
2023-02-15T00:17:41.535Z,9.80
2023-02-15T00:18:41.505Z,10.20
2023-02-15T00:19:41.496Z,9.40
2023-02-15T00:20:41.482Z,9.50
2023-02-15T00:21:41.646Z,9.00
2023-02-15T00:22:41.462Z,8.90
2023-02-15T00:23:41.623Z,8.90
2023-02-15T00:24:41.429Z,8.70
2023-02-15T00:25:41.418Z,9.20
2023-02-15T00:26:41.405Z,9.10
2023-02-15T00:27:41.399Z,9.40
2023-02-15T00:28:41.551Z,9.80
2023-02-15T00:29:41.364Z,8.70
2023-02-15T00:30:41.389Z,8.50
2023-02-15T00:31:41.403Z,10.10
2023-02-15T00:32:41.518Z,9.30
2023-02-15T00:33:41.311Z,10.20
2023-02-15T00:34:41.300Z,10.10
2023-02-15T00:35:41.293Z,10.20
2023-02-15T00:36:41.468Z,10.00
2023-02-15T00:37:41.264Z,9.20
2023-02-15T00:38:41.251Z,8.90
2023-02-15T00:39:41.255Z,9.50
2023-02-15T00:40:41.229Z,9.50
2023-02-15T00:41:41.215Z,9.60
2023-02-15T00:42:41.209Z,9.30
2023-02-15T00:43:41.193Z,10.20
2023-02-15T00:44:41.348Z,10.00
2023-02-15T00:45:41.192Z,9.40
2023-02-15T00:46:41.329Z,10.00
2023-02-15T00:47:41.137Z,10.70
2023-02-15T00:48:41.124Z,10.30
2023-02-15T00:49:41.113Z,10.10
2023-02-15T00:50:41.099Z,9.70
2023-02-15T00:51:41.281Z,9.90
2023-02-15T00:52:41.077Z,8.80
2023-02-15T00:53:41.087Z,9.30
2023-02-15T00:54:41.036Z,9.50
2023-02-15T00:55:41.035Z,9.20
2023-02-15T00:56:41.016Z,9.40
2023-02-15T00:57:41.009Z,9.40
2023-02-15T00:58:41.164Z,8.80
2023-02-15T00:59:40.994Z,9.50
2023-02-15T01:00:41.145Z,9.90
2023-02-15T01:01:40.965Z,9.50
2023-02-15T01:02:40.941Z,8.80
2023-02-15T01:03:41.106Z,9.40
2023-02-15T01:04:40.964Z,8.80
2023-02-15T01:05:40.904Z,8.80
2023-02-15T01:06:41.074Z,9.60
2023-02-15T01:07:40.884Z,8.80
2023-02-15T01:08:40.869Z,9.00
2023-02-15T01:09:40.864Z,8.60
2023-02-15T01:10:40.842Z,9.70
2023-02-15T01:11:41.006Z,9.40
2023-02-15T01:12:40.816Z,10.10
2023-02-15T01:13:40.838Z,10.50
2023-02-15T01:14:40.799Z,9.70
2023-02-15T01:15:43.061Z,9.00
2023-02-15T01:16:40.769Z,9.60
2023-02-15T01:17:40.755Z,9.30
2023-02-15T01:18:41.045Z,10.20
2023-02-15T01:19:40.736Z,9.90
2023-02-15T01:20:40.722Z,9.20
2023-02-15T01:21:40.713Z,9.00
2023-02-15T01:22:40.698Z,9.60
2023-02-15T01:23:40.694Z,9.90
2023-02-15T01:24:40.660Z,9.80
2023-02-15T01:25:40.652Z,9.80
2023-02-15T01:26:40.650Z,9.20
2023-02-15T01:27:40.622Z,9.60
2023-02-15T01:28:40.795Z,9.50
2023-02-15T01:29:40.615Z,9.00
2023-02-15T01:30:40.756Z,9.90
2023-02-15T01:31:40.671Z,9.70
2023-02-15T01:32:40.560Z,9.80
2023-02-15T01:33:40.564Z,9.20
2023-02-15T01:34:40.709Z,9.10
2023-02-15T01:35:40.527Z,9.70
2023-02-15T01:36:40.510Z,10.10
2023-02-15T01:37:40.500Z,9.80
2023-02-15T01:38:40.481Z,10.20
2023-02-15T01:39:40.649Z,9.50
2023-02-15T01:40:40.639Z,10.10
2023-02-15T01:41:40.452Z,10.30
2023-02-15T01:42:40.444Z,9.90
2023-02-15T01:43:40.432Z,9.50
2023-02-15T01:44:40.409Z,9.60
2023-02-15T01:45:40.579Z,9.20
2023-02-15T01:46:40.558Z,9.80
2023-02-15T01:47:40.381Z,9.80
2023-02-15T01:48:40.367Z,9.50
2023-02-15T01:49:40.340Z,10.30
2023-02-15T01:50:40.326Z,9.60
2023-02-15T01:51:40.349Z,9.70
2023-02-15T01:52:40.314Z,10.00
2023-02-15T01:53:40.296Z,10.40
2023-02-15T01:54:40.274Z,9.90
2023-02-15T01:55:40.272Z,9.70
2023-02-15T01:56:40.256Z,10.30
2023-02-15T01:57:40.258Z,10.20
2023-02-15T01:58:40.405Z,10.00
2023-02-15T01:59:40.215Z,10.20
2023-02-15T02:00:40.201Z,10.20
2023-02-15T02:01:40.355Z,10.50
2023-02-15T02:02:40.191Z,9.50
2023-02-15T02:03:40.355Z,10.20
2023-02-15T02:04:40.147Z,9.80
2023-02-15T02:05:40.138Z,9.60
2023-02-15T02:06:40.132Z,10.40
2023-02-15T02:07:40.109Z,10.00
2023-02-15T02:08:40.273Z,9.70
2023-02-15T02:09:40.088Z,10.30
2023-02-15T02:10:40.070Z,9.80
2023-02-15T02:11:40.070Z,10.50
2023-02-15T02:12:40.046Z,9.60
2023-02-15T02:13:40.046Z,10.00
2023-02-15T02:14:40.197Z,10.40
2023-02-15T02:15:40.033Z,9.50
2023-02-15T02:16:39.995Z,9.10
2023-02-15T02:17:39.987Z,9.50
2023-02-15T02:18:39.966Z,9.60
2023-02-15T02:19:40.137Z,10.40
2023-02-15T02:20:39.945Z,10.10
2023-02-15T02:21:39.938Z,9.20
2023-02-15T02:22:39.924Z,9.80
2023-02-15T02:23:39.924Z,10.10
2023-02-15T02:24:39.924Z,9.90
2023-02-15T02:25:39.884Z,10.20
2023-02-15T02:26:39.873Z,9.80
2023-02-15T02:27:39.861Z,10.20
2023-02-15T02:28:39.844Z,11.10
2023-02-15T02:29:39.863Z,10.50
2023-02-15T02:30:40.118Z,10.00
2023-02-15T02:31:39.957Z,10.20
2023-02-15T02:32:39.796Z,9.90
2023-02-15T02:33:39.784Z,10.10
2023-02-15T02:34:39.761Z,10.80
2023-02-15T02:35:39.751Z,10.30
2023-02-15T02:36:39.932Z,9.90
2023-02-15T02:37:39.750Z,10.20
2023-02-15T02:38:39.724Z,10.20
2023-02-15T02:39:39.700Z,10.20
2023-02-15T02:40:39.701Z,10.40
2023-02-15T02:41:39.691Z,10.40
2023-02-15T02:42:39.843Z,10.70
2023-02-15T02:43:39.653Z,10.50
2023-02-15T02:44:39.649Z,10.60
2023-02-15T02:45:39.630Z,9.90
2023-02-15T02:46:39.720Z,10.20
2023-02-15T02:47:39.778Z,10.20
2023-02-15T02:48:39.770Z,10.20
2023-02-15T02:49:39.600Z,10.20
2023-02-15T02:50:39.569Z,10.20
2023-02-15T02:51:39.549Z,10.20
2023-02-15T02:52:39.732Z,11.20
2023-02-15T02:53:39.548Z,9.80
2023-02-15T02:54:39.528Z,11.20
2023-02-15T02:55:39.508Z,10.90
2023-02-15T02:56:39.487Z,11.50
2023-02-15T02:57:39.477Z,11.20
2023-02-15T02:58:39.827Z,10.20
2023-02-15T02:59:39.460Z,10.30
2023-02-15T03:00:39.450Z,10.50
2023-02-15T03:01:39.486Z,10.30
2023-02-15T03:02:39.497Z,10.70
2023-02-15T03:03:39.412Z,10.40
2023-02-15T03:04:39.397Z,10.10
2023-02-15T03:05:39.383Z,11.00
2023-02-15T03:06:39.365Z,10.50
2023-02-15T03:07:39.355Z,9.90
2023-02-15T03:08:39.355Z,11.10
2023-02-15T03:09:39.335Z,10.30
2023-02-15T03:10:39.326Z,10.60
2023-02-15T03:11:39.318Z,10.50
2023-02-15T03:12:39.290Z,10.50
2023-02-15T03:13:39.287Z,10.80
2023-02-15T03:14:39.277Z,10.40
2023-02-15T03:15:39.445Z,10.70
2023-02-15T03:16:39.238Z,10.40
2023-02-15T03:17:39.230Z,10.90
2023-02-15T03:18:39.216Z,10.30
2023-02-15T03:19:39.213Z,10.70
2023-02-15T03:20:39.199Z,11.20
2023-02-15T03:21:39.204Z,10.20
2023-02-15T03:22:39.162Z,10.40
2023-02-15T03:23:39.153Z,10.70
2023-02-15T03:24:39.152Z,10.20
2023-02-15T03:25:39.131Z,10.70
2023-02-15T03:26:39.297Z,10.80
2023-02-15T03:27:39.294Z,10.00
2023-02-15T03:28:39.094Z,11.00
2023-02-15T03:29:39.086Z,10.90
2023-02-15T03:30:39.062Z,11.20
2023-02-15T03:31:39.136Z,10.50
2023-02-15T03:32:39.224Z,11.30
2023-02-15T03:33:39.040Z,10.40
2023-02-15T03:34:39.026Z,9.70
2023-02-15T03:35:39.003Z,10.40
2023-02-15T03:36:39.050Z,10.60
2023-02-15T03:37:39.011Z,10.30
2023-02-15T03:38:38.971Z,10.50
2023-02-15T03:39:38.946Z,10.50
2023-02-15T03:40:38.944Z,11.30
2023-02-15T03:41:38.924Z,10.20
2023-02-15T03:42:38.931Z,10.20
2023-02-15T03:43:38.902Z,11.50
2023-02-15T03:44:38.892Z,10.40
2023-02-15T03:45:38.868Z,10.70
2023-02-15T03:46:38.877Z,11.00
2023-02-15T03:47:38.851Z,10.70
2023-02-15T03:48:39.011Z,10.50
2023-02-15T03:49:38.992Z,10.10
2023-02-15T03:50:38.816Z,10.00
2023-02-15T03:51:38.813Z,10.50
2023-02-15T03:52:38.785Z,10.70
2023-02-15T03:53:38.782Z,10.60
2023-02-15T03:54:38.945Z,10.80
2023-02-15T03:55:38.920Z,10.70
2023-02-15T03:56:38.741Z,9.90
2023-02-15T03:57:38.720Z,10.30
2023-02-15T03:58:38.717Z,10.00
2023-02-15T03:59:38.695Z,9.90
2023-02-15T04:00:38.715Z,10.00
2023-02-15T04:01:38.670Z,10.20
2023-02-15T04:02:38.706Z,9.40
2023-02-15T04:03:38.656Z,9.80
2023-02-15T04:04:38.649Z,10.20
2023-02-15T04:05:38.792Z,10.10
2023-02-15T04:06:38.614Z,9.80
2023-02-15T04:07:38.592Z,10.10
2023-02-15T04:08:38.598Z,10.50
2023-02-15T04:09:38.575Z,10.00
2023-02-15T04:10:38.733Z,9.90
2023-02-15T04:11:38.544Z,10.20
2023-02-15T04:12:38.540Z,10.00
2023-02-15T04:13:38.523Z,10.80
2023-02-15T04:14:38.510Z,10.00
2023-02-15T04:15:38.664Z,10.60
2023-02-15T04:16:38.852Z,10.20
2023-02-15T04:17:38.477Z,10.20
2023-02-15T04:18:38.469Z,10.20
2023-02-15T04:19:38.437Z,10.00
2023-02-15T04:20:38.426Z,10.10
2023-02-15T04:21:38.428Z,10.10
2023-02-15T04:22:38.405Z,9.90
2023-02-15T04:23:38.387Z,10.70
2023-02-15T04:24:38.375Z,10.60
2023-02-15T04:25:38.366Z,10.40
2023-02-15T04:26:38.527Z,11.20
2023-02-15T04:27:38.337Z,11.50
2023-02-15T04:28:38.323Z,10.30
2023-02-15T04:29:38.314Z,12.00
2023-02-15T04:30:38.308Z,10.70
2023-02-15T04:31:38.413Z,10.70
2023-02-15T04:32:38.453Z,10.00
2023-02-15T04:33:38.260Z,10.50
2023-02-15T04:34:38.251Z,9.80
2023-02-15T04:35:38.235Z,10.10
2023-02-15T04:36:38.219Z,10.20
2023-02-15T04:37:38.389Z,10.30
2023-02-15T04:38:38.199Z,9.50
2023-02-15T04:39:38.178Z,9.80
2023-02-15T04:40:38.185Z,10.50
2023-02-15T04:41:38.156Z,9.90
2023-02-15T04:42:38.156Z,10.90
2023-02-15T04:43:38.135Z,10.80
2023-02-15T04:44:38.121Z,10.80
2023-02-15T04:45:38.168Z,9.80
2023-02-15T04:46:38.106Z,10.50
2023-02-15T04:47:38.347Z,10.40
2023-02-15T04:48:38.394Z,11.10
2023-02-15T04:49:38.053Z,10.40
2023-02-15T04:50:38.044Z,9.90
2023-02-15T04:51:38.024Z,11.30
2023-02-15T04:52:38.023Z,10.30
2023-02-15T04:53:38.173Z,10.90
2023-02-15T04:54:38.004Z,10.50
2023-02-15T04:55:37.982Z,10.90
2023-02-15T04:56:37.972Z,10.80
2023-02-15T04:57:37.962Z,10.50
2023-02-15T04:58:38.132Z,10.60
2023-02-15T04:59:37.927Z,10.90
2023-02-15T05:00:37.939Z,10.90
2023-02-15T05:01:37.904Z,10.70
2023-02-15T05:02:37.902Z,10.30
2023-02-15T05:03:37.872Z,10.30
2023-02-15T05:04:38.134Z,10.90
2023-02-15T05:05:37.892Z,10.90
2023-02-15T05:06:37.846Z,10.80
2023-02-15T05:07:37.830Z,10.40
2023-02-15T05:08:37.838Z,11.40
2023-02-15T05:09:38.088Z,11.10
2023-02-15T05:10:37.796Z,10.30
2023-02-15T05:11:37.779Z,10.50
2023-02-15T05:12:37.768Z,10.60
2023-02-15T05:13:37.759Z,10.50
2023-02-15T05:14:37.751Z,10.70
2023-02-15T05:15:37.909Z,10.10
2023-02-15T05:16:37.790Z,10.60
2023-02-15T05:17:37.707Z,11.20
2023-02-15T05:18:37.698Z,10.50
2023-02-15T05:19:37.674Z,11.30
2023-02-15T05:20:37.837Z,10.70
2023-02-15T05:21:37.680Z,10.50
2023-02-15T05:22:37.647Z,11.10
2023-02-15T05:23:37.637Z,11.60
2023-02-15T05:24:37.618Z,10.20
2023-02-15T05:25:37.597Z,10.80
2023-02-15T05:26:37.741Z,11.20
2023-02-15T05:27:37.582Z,10.90
2023-02-15T05:28:37.581Z,11.50
2023-02-15T05:29:37.557Z,11.20
2023-02-15T05:30:37.748Z,11.70
2023-02-15T05:31:37.745Z,11.80
2023-02-15T05:32:37.803Z,11.10
2023-02-15T05:33:37.702Z,12.40
2023-02-15T05:34:37.497Z,11.00
2023-02-15T05:35:37.479Z,11.10
2023-02-15T05:36:37.473Z,11.80
2023-02-15T05:37:37.638Z,10.80
2023-02-15T05:38:37.459Z,11.40
2023-02-15T05:39:37.709Z,11.00
2023-02-15T05:40:37.428Z,10.70
2023-02-15T05:41:37.408Z,11.00
2023-02-15T05:42:37.397Z,11.40
2023-02-15T05:43:37.574Z,10.30
2023-02-15T05:44:37.370Z,12.00
2023-02-15T05:45:37.553Z,11.20
2023-02-15T05:46:37.345Z,11.40
2023-02-15T05:47:37.419Z,12.00
2023-02-15T05:48:37.325Z,12.00
2023-02-15T05:49:37.308Z,11.30
2023-02-15T05:50:37.495Z,12.50
2023-02-15T05:51:37.287Z,11.80
2023-02-15T05:52:37.282Z,12.10
2023-02-15T05:53:37.439Z,13.30
2023-02-15T05:54:37.245Z,12.00
2023-02-15T05:55:37.237Z,11.50
2023-02-15T05:56:37.230Z,11.90
2023-02-15T05:57:37.215Z,12.00
2023-02-15T05:58:37.217Z,11.00
2023-02-15T05:59:37.190Z,11.90
2023-02-15T06:00:38.185Z,11.90
2023-02-15T06:01:37.177Z,12.40
2023-02-15T06:02:37.173Z,11.70
2023-02-15T06:03:37.180Z,11.40
2023-02-15T06:04:37.126Z,11.00
2023-02-15T06:05:37.103Z,11.30
2023-02-15T06:06:37.109Z,12.00
2023-02-15T06:07:37.087Z,12.50
2023-02-15T06:08:37.076Z,11.90
2023-02-15T06:09:37.055Z,12.80
2023-02-15T06:10:37.053Z,12.80
2023-02-15T06:11:37.058Z,12.70
2023-02-15T06:12:37.024Z,12.30
2023-02-15T06:13:38.816Z,12.90
2023-02-15T06:14:36.995Z,12.60
2023-02-15T06:15:37.148Z,13.20
2023-02-15T06:16:36.970Z,13.30
2023-02-15T06:17:36.962Z,12.80
2023-02-15T06:18:36.974Z,12.10
2023-02-15T06:19:36.938Z,12.60
2023-02-15T06:20:36.922Z,13.30
2023-02-15T06:21:36.915Z,11.30
2023-02-15T06:22:36.891Z,11.90
2023-02-15T06:23:36.905Z,11.80
2023-02-15T06:24:36.870Z,12.40
2023-02-15T06:25:38.585Z,12.80
2023-02-15T06:26:36.907Z,12.10
2023-02-15T06:27:36.840Z,12.30
2023-02-15T06:28:36.830Z,11.40
2023-02-15T06:29:36.811Z,12.10
2023-02-15T06:30:36.788Z,13.30
2023-02-15T06:31:36.895Z,11.80
2023-02-15T06:32:36.765Z,12.80
2023-02-15T06:33:36.930Z,12.80
2023-02-15T06:34:36.756Z,12.30
2023-02-15T06:35:36.743Z,13.10
2023-02-15T06:36:36.714Z,12.80
2023-02-15T06:37:36.706Z,12.40
2023-02-15T06:38:36.865Z,12.40
2023-02-15T06:39:36.694Z,13.20
2023-02-15T06:40:36.665Z,13.30
2023-02-15T06:41:36.656Z,14.00
2023-02-15T06:42:36.643Z,13.10
2023-02-15T06:43:36.646Z,12.70
2023-02-15T06:44:36.894Z,12.40
2023-02-15T06:45:36.614Z,12.20
2023-02-15T06:46:36.647Z,11.80
2023-02-15T06:47:36.582Z,11.80
2023-02-15T06:48:36.563Z,13.30
2023-02-15T06:49:36.561Z,13.00
2023-02-15T06:50:36.722Z,12.30
2023-02-15T06:51:36.705Z,13.00
2023-02-15T06:52:36.511Z,12.70
2023-02-15T06:53:36.512Z,12.90
2023-02-15T06:54:36.496Z,11.80
2023-02-15T06:55:36.492Z,12.20
2023-02-15T06:56:36.633Z,12.50
2023-02-15T06:57:36.487Z,12.80
2023-02-15T06:58:36.456Z,12.00
2023-02-15T06:59:36.430Z,12.50
2023-02-15T07:00:36.439Z,12.30
2023-02-15T07:01:36.453Z,12.10
2023-02-15T07:02:36.422Z,11.60
2023-02-15T07:03:36.384Z,12.60
2023-02-15T07:04:36.398Z,11.70
2023-02-15T07:05:36.357Z,13.80
2023-02-15T07:06:36.514Z,12.30
2023-02-15T07:07:36.348Z,13.00
2023-02-15T07:08:36.489Z,12.70
2023-02-15T07:09:36.302Z,11.50
2023-02-15T07:10:36.282Z,12.90
2023-02-15T07:11:36.272Z,11.70
2023-02-15T07:12:36.262Z,11.90
2023-02-15T07:13:36.261Z,12.50
2023-02-15T07:14:36.241Z,11.80
2023-02-15T07:15:36.220Z,13.20
2023-02-15T07:16:36.220Z,13.20
2023-02-15T07:17:36.662Z,12.00
2023-02-15T07:18:36.198Z,11.90
2023-02-15T07:19:36.172Z,12.60
2023-02-15T07:20:37.482Z,13.10
2023-02-15T07:21:36.138Z,12.60
2023-02-15T07:22:36.136Z,13.70
2023-02-15T07:23:36.294Z,12.60
2023-02-15T07:24:36.118Z,13.50
2023-02-15T07:25:36.103Z,12.30
2023-02-15T07:26:36.084Z,12.50
2023-02-15T07:27:36.065Z,13.10
2023-02-15T07:28:36.076Z,13.70
2023-02-15T07:29:36.232Z,12.30
2023-02-15T07:30:36.085Z,12.90
2023-02-15T07:31:36.013Z,12.80
2023-02-15T07:32:36.072Z,12.70
2023-02-15T07:33:35.994Z,13.20
2023-02-15T07:34:36.164Z,12.40
2023-02-15T07:35:35.971Z,12.50
2023-02-15T07:36:35.964Z,12.10
2023-02-15T07:37:35.942Z,11.90
2023-02-15T07:38:35.952Z,12.80
2023-02-15T07:39:36.094Z,12.20
2023-02-15T07:40:35.912Z,12.60
2023-02-15T07:41:36.084Z,13.30
2023-02-15T07:42:35.883Z,13.70
2023-02-15T07:43:35.871Z,12.90
2023-02-15T07:44:35.850Z,12.40
2023-02-15T07:45:35.838Z,12.00
2023-02-15T07:46:36.056Z,13.00
2023-02-15T07:47:35.818Z,12.40
2023-02-15T07:48:35.830Z,12.70
2023-02-15T07:49:35.797Z,15.10
2023-02-15T07:50:35.796Z,14.30
2023-02-15T07:51:35.968Z,14.40
2023-02-15T07:52:35.761Z,14.40
2023-02-15T07:53:35.740Z,13.60
2023-02-15T07:54:35.771Z,14.50
2023-02-15T07:55:35.711Z,13.10
2023-02-15T07:56:37.121Z,13.20
2023-02-15T07:57:35.686Z,12.40
2023-02-15T07:58:35.684Z,12.70
2023-02-15T07:59:35.668Z,13.90
2023-02-15T08:00:35.656Z,11.90
2023-02-15T08:01:35.646Z,12.40
2023-02-15T08:02:35.715Z,13.10
2023-02-15T08:03:35.655Z,12.80
2023-02-15T08:04:35.606Z,13.50
2023-02-15T08:05:35.584Z,12.80
2023-02-15T08:06:35.640Z,13.80
2023-02-15T08:07:35.569Z,12.90
2023-02-15T08:08:35.554Z,14.10
2023-02-15T08:09:35.534Z,13.40
2023-02-15T08:10:35.536Z,14.30
2023-02-15T08:11:35.695Z,14.70
2023-02-15T08:12:35.505Z,14.00
2023-02-15T08:13:35.486Z,13.60
2023-02-15T08:14:35.489Z,12.60
2023-02-15T08:15:35.479Z,13.50
2023-02-15T08:16:35.491Z,12.50
2023-02-15T08:17:35.618Z,13.00
2023-02-15T08:18:35.438Z,11.70
2023-02-15T08:19:35.604Z,11.90
2023-02-15T08:20:35.408Z,12.00
2023-02-15T08:21:35.390Z,12.10
2023-02-15T08:22:35.386Z,11.60
2023-02-15T08:23:35.367Z,11.90
2023-02-15T08:24:35.367Z,10.70
2023-02-15T08:25:35.341Z,11.80
2023-02-15T08:26:35.333Z,11.30
2023-02-15T08:27:35.317Z,11.50
2023-02-15T08:28:35.489Z,11.50
2023-02-15T08:29:35.480Z,11.40
2023-02-15T08:30:36.426Z,11.50
2023-02-15T08:31:35.398Z,10.40
2023-02-15T08:32:35.258Z,10.90
2023-02-15T08:33:35.244Z,10.50
2023-02-15T08:34:35.424Z,10.70
2023-02-15T08:41:19.995Z,10.20
2023-02-15T08:42:20.043Z,10.50
2023-02-15T08:43:19.935Z,10.40
2023-02-15T08:44:19.951Z,11.00
2023-02-15T08:45:19.916Z,10.60
2023-02-15T08:46:19.924Z,11.40
2023-02-15T08:47:20.064Z,11.20
2023-02-15T08:48:20.069Z,9.90
2023-02-15T08:49:19.948Z,10.80
2023-02-15T08:50:19.852Z,10.00
2023-02-15T08:51:19.836Z,9.60
2023-02-15T08:52:19.836Z,10.20
2023-02-15T08:53:19.999Z,9.90
2023-02-15T08:54:19.831Z,9.10
2023-02-15T08:55:19.780Z,9.80
2023-02-15T08:56:19.781Z,10.00
2023-02-15T08:57:19.781Z,10.50
2023-02-15T08:58:19.930Z,9.60
2023-02-15T08:59:19.746Z,10.20
2023-02-15T09:00:19.729Z,10.00
2023-02-15T09:01:19.746Z,9.70
2023-02-15T09:02:19.738Z,10.00
2023-02-15T09:03:19.859Z,9.40
2023-02-15T09:04:19.868Z,10.00
2023-02-15T09:05:19.659Z,9.30
2023-02-15T09:06:19.647Z,9.50
2023-02-15T09:07:19.640Z,9.90
2023-02-15T09:08:19.640Z,9.90
2023-02-15T09:09:19.802Z,9.00
2023-02-15T09:10:19.616Z,8.90
2023-02-15T09:11:19.596Z,9.10
2023-02-15T09:12:19.602Z,9.50
2023-02-15T09:13:19.567Z,9.10
2023-02-15T09:14:19.574Z,8.80
2023-02-15T09:15:19.535Z,9.20
2023-02-15T09:16:19.564Z,8.90
2023-02-15T09:17:19.538Z,9.40
2023-02-15T09:18:19.495Z,8.20
2023-02-15T09:19:19.494Z,9.20
2023-02-15T09:20:19.656Z,8.10
2023-02-15T09:21:19.455Z,9.00
2023-02-15T09:22:19.452Z,9.00
2023-02-15T09:23:26.855Z,9.10
2023-02-15T09:24:20.425Z,8.70
2023-02-15T09:25:19.411Z,8.70
2023-02-15T09:26:19.427Z,7.80
2023-02-15T09:27:19.388Z,8.10
2023-02-15T09:28:19.370Z,9.20
2023-02-15T09:29:19.360Z,8.20
2023-02-15T09:30:19.427Z,8.40
2023-02-15T09:31:19.654Z,8.30
2023-02-15T09:32:19.366Z,8.00
2023-02-15T09:33:19.600Z,8.20
2023-02-15T09:34:19.299Z,8.90
2023-02-15T09:35:19.268Z,7.60
2023-02-15T09:36:19.277Z,8.40
2023-02-15T09:37:19.262Z,8.30
2023-02-15T09:38:19.425Z,8.00
2023-02-15T09:39:19.227Z,7.90
2023-02-15T09:40:19.216Z,8.30
2023-02-15T09:41:19.196Z,7.30
2023-02-15T09:42:19.185Z,8.00
2023-02-15T09:43:19.176Z,8.20
2023-02-15T09:44:19.174Z,8.00
2023-02-15T09:45:19.148Z,8.50
2023-02-15T09:46:19.200Z,7.70
2023-02-15T09:47:19.153Z,7.30
2023-02-15T09:48:19.128Z,7.90
2023-02-15T09:49:19.295Z,7.80
2023-02-15T09:50:19.104Z,8.50
2023-02-15T09:51:19.070Z,7.40
2023-02-15T09:52:19.063Z,7.20
2023-02-15T09:53:19.075Z,7.00
2023-02-15T09:54:19.054Z,6.40
2023-02-15T09:55:19.036Z,7.20
2023-02-15T09:56:20.755Z,6.70
2023-02-15T09:57:18.994Z,6.30
2023-02-15T09:58:19.009Z,6.90
2023-02-15T09:59:18.971Z,6.80
2023-02-15T10:00:19.140Z,7.10
2023-02-15T10:01:18.973Z,6.80
2023-02-15T10:02:18.937Z,7.30
2023-02-15T10:03:18.934Z,7.10
2023-02-15T10:04:18.997Z,6.70
2023-02-15T10:05:18.894Z,6.90
2023-02-15T10:06:18.884Z,7.20
2023-02-15T10:07:19.036Z,6.40
2023-02-15T10:08:18.856Z,6.40
2023-02-15T10:09:18.843Z,6.40
2023-02-15T10:10:18.845Z,7.00
2023-02-15T10:11:18.985Z,6.80
2023-02-15T10:12:18.812Z,6.20
2023-02-15T10:13:18.781Z,6.70
2023-02-15T10:14:19.606Z,6.60
2023-02-15T10:15:18.764Z,6.60
2023-02-15T10:16:19.016Z,6.50
2023-02-15T10:17:18.756Z,5.90
2023-02-15T10:18:18.725Z,6.70
2023-02-15T10:19:18.718Z,6.60
2023-02-15T10:20:18.713Z,6.40
2023-02-15T10:21:18.702Z,6.30
2023-02-15T10:22:18.674Z,7.00
2023-02-15T10:23:18.657Z,6.60
2023-02-15T10:24:18.654Z,6.60
2023-02-15T10:25:18.644Z,6.20
2023-02-15T10:26:18.802Z,6.60
2023-02-15T10:27:18.860Z,6.60
2023-02-15T10:28:18.592Z,6.60
2023-02-15T10:29:18.582Z,6.50
2023-02-15T10:30:18.638Z,6.40
2023-02-15T10:31:18.622Z,6.20
2023-02-15T10:32:18.606Z,6.50
2023-02-15T10:33:18.542Z,6.40
2023-02-15T10:34:18.516Z,6.10
2023-02-15T10:35:18.498Z,6.50
2023-02-15T10:36:18.489Z,6.30
2023-02-15T10:37:18.502Z,6.80
2023-02-15T10:38:18.470Z,6.30
2023-02-15T10:39:18.450Z,6.40
2023-02-15T10:40:18.438Z,5.80
2023-02-15T10:41:18.429Z,6.50
2023-02-15T10:42:18.428Z,6.80
2023-02-15T10:43:18.390Z,6.50
2023-02-15T10:44:18.571Z,5.90
2023-02-15T10:45:18.368Z,5.80
2023-02-15T10:46:18.413Z,5.60
2023-02-15T10:47:18.348Z,6.10
2023-02-15T10:48:18.508Z,6.10
2023-02-15T10:49:18.307Z,6.20
2023-02-15T10:50:18.348Z,5.90
2023-02-15T10:51:18.287Z,6.30
2023-02-15T10:52:18.297Z,6.00
2023-02-15T10:53:18.266Z,6.20
2023-02-15T10:54:18.256Z,6.30
2023-02-15T10:55:18.430Z,6.30
2023-02-15T10:56:18.226Z,5.80
2023-02-15T10:57:18.220Z,5.90
2023-02-15T10:58:18.206Z,5.60
2023-02-15T10:59:18.187Z,5.80
2023-02-15T11:00:18.197Z,6.20
2023-02-15T11:01:18.193Z,6.10
2023-02-15T11:02:18.154Z,6.30
2023-02-15T11:03:18.135Z,5.70
2023-02-15T11:04:18.143Z,6.40
2023-02-15T11:05:18.714Z,6.40
2023-02-15T11:06:18.217Z,6.40
2023-02-15T11:07:18.165Z,5.90
2023-02-15T11:08:18.143Z,5.80
2023-02-15T11:09:18.115Z,6.40
2023-02-15T11:10:18.518Z,6.70
2023-02-15T11:11:18.065Z,5.60
2023-02-15T11:12:18.195Z,6.20
2023-02-15T11:13:18.005Z,6.60
2023-02-15T11:14:18.002Z,6.50
2023-02-15T11:15:17.991Z,6.90
2023-02-15T11:16:18.997Z,5.90
2023-02-15T11:17:17.980Z,6.70
2023-02-15T11:18:17.947Z,6.60
2023-02-15T11:19:17.935Z,6.10
2023-02-15T11:20:17.923Z,6.20
2023-02-15T11:21:17.904Z,5.90
2023-02-15T11:22:18.234Z,6.40
2023-02-15T11:23:18.054Z,6.00
2023-02-15T11:24:17.881Z,6.20
2023-02-15T11:25:17.873Z,6.20
2023-02-15T11:26:17.851Z,5.70
2023-02-15T11:27:17.879Z,6.20
2023-02-15T11:28:17.836Z,6.20
2023-02-15T11:29:17.803Z,5.30
2023-02-15T11:30:18.042Z,5.60
2023-02-15T11:31:17.918Z,5.80
2023-02-15T11:32:17.928Z,5.80
2023-02-15T11:33:17.766Z,6.20
2023-02-15T11:34:17.752Z,5.30
2023-02-15T11:35:17.912Z,5.50
2023-02-15T11:36:17.722Z,5.60
2023-02-15T11:37:17.703Z,5.70
2023-02-15T11:38:17.702Z,5.20
2023-02-15T11:39:17.684Z,5.70
2023-02-15T11:40:17.884Z,6.60
2023-02-15T11:41:17.660Z,6.20
2023-02-15T11:42:17.649Z,6.10
2023-02-15T11:43:17.629Z,5.90
2023-02-15T11:44:17.608Z,6.00
2023-02-15T11:45:17.628Z,6.00
2023-02-15T11:46:17.643Z,6.70
2023-02-15T11:47:17.587Z,5.40
2023-02-15T11:48:17.565Z,5.90
2023-02-15T11:49:17.557Z,5.80
2023-02-15T11:50:17.634Z,5.10
2023-02-15T11:51:17.667Z,5.40
2023-02-15T11:52:17.529Z,5.50
2023-02-15T11:53:17.497Z,4.60
2023-02-15T11:54:17.476Z,4.80
2023-02-15T11:55:17.484Z,4.80
2023-02-15T11:56:17.479Z,5.30
2023-02-15T11:57:17.457Z,5.10
2023-02-15T11:58:17.434Z,4.90
2023-02-15T11:59:17.424Z,4.90
2023-02-15T12:00:17.444Z,5.40
2023-02-15T12:01:17.394Z,5.40
2023-02-15T12:02:17.560Z,5.00
2023-02-15T12:03:17.545Z,5.50
2023-02-15T12:04:17.390Z,5.40
2023-02-15T12:05:17.338Z,5.30
2023-02-15T12:06:17.318Z,5.60
2023-02-15T12:07:17.307Z,5.40
2023-02-15T12:08:17.304Z,4.60
2023-02-15T12:09:17.299Z,4.80
2023-02-15T12:10:17.409Z,5.50
2023-02-15T12:11:17.264Z,5.00
2023-02-15T12:12:17.250Z,4.90
2023-02-15T12:13:17.224Z,5.00
2023-02-15T12:14:17.417Z,4.40
2023-02-15T12:15:17.205Z,4.40
2023-02-15T12:16:17.272Z,4.10
2023-02-15T12:17:17.176Z,4.70
2023-02-15T12:18:17.478Z,4.40
2023-02-15T12:19:17.153Z,3.90
2023-02-15T12:20:17.257Z,4.60
2023-02-15T12:21:17.308Z,3.90
2023-02-15T12:22:17.104Z,3.90
2023-02-15T12:23:17.287Z,4.40
2023-02-15T12:24:17.075Z,4.10
2023-02-15T12:25:17.084Z,4.10
2023-02-15T12:26:17.062Z,4.00
2023-02-15T12:27:17.049Z,4.20
2023-02-15T12:28:17.202Z,4.30
2023-02-15T12:29:17.013Z,4.10
2023-02-15T12:30:17.064Z,4.10
2023-02-15T12:31:17.117Z,4.10
2023-02-15T12:32:16.971Z,3.80
2023-02-15T12:33:17.171Z,4.30
2023-02-15T12:34:17.157Z,4.30
2023-02-15T12:35:16.933Z,3.80
2023-02-15T12:36:16.914Z,4.10
2023-02-15T12:37:16.915Z,4.60
2023-02-15T12:38:16.902Z,4.00
2023-02-15T12:39:17.078Z,4.20
2023-02-15T12:40:16.866Z,4.40
2023-02-15T12:41:16.869Z,4.60
2023-02-15T12:42:16.834Z,5.30
2023-02-15T12:43:16.822Z,4.40
2023-02-15T12:44:17.009Z,4.20
2023-02-15T12:45:19.227Z,4.10
2023-02-15T12:46:16.820Z,4.10
2023-02-15T12:47:16.800Z,4.40
2023-02-15T12:48:16.781Z,4.30
2023-02-15T12:49:20.448Z,4.90
2023-02-15T12:50:16.951Z,4.20
2023-02-15T12:51:16.724Z,4.20
2023-02-15T12:52:16.726Z,4.60
2023-02-15T12:53:16.694Z,4.60
2023-02-15T12:54:16.800Z,4.10
2023-02-15T12:55:16.851Z,4.60
2023-02-15T12:56:16.662Z,3.80
2023-02-15T12:57:16.659Z,4.70
2023-02-15T12:58:16.645Z,4.40
2023-02-15T12:59:23.106Z,4.20
2023-02-15T13:00:17.832Z,4.60
2023-02-15T13:01:16.717Z,4.30
2023-02-15T13:02:16.669Z,4.20
2023-02-15T13:03:16.572Z,4.60
2023-02-15T13:04:16.570Z,4.50
2023-02-15T13:05:16.546Z,4.60
2023-02-15T13:06:16.562Z,4.30
2023-02-15T13:07:16.702Z,4.60
2023-02-15T13:08:16.526Z,4.50
2023-02-15T13:09:16.662Z,4.50
2023-02-15T13:10:16.494Z,5.20